Beaufort County Airport

About
Name: Beaufort County Airport
Identifier:  BFT/KNBC
Serves:  Lady's Island
Owner:  County of Beaufort
Public/Private:  Public
Local Time:  22. Sep 06:24 EDT
Description: Beaufort County Airport is a county-owned, public-use airport in Beaufort County, South Carolina, United States. The airport is located on Lady's Island, three nautical miles southeast of the central business district of Beaufort, South Carolina. It is also known as Frogmore Island Airport or Frogmore Intranational Airport.
Source: Wikipedia
Location
Runways
Identifier Length (m/ft) Surface
7/25 1,047/3,434 Asphalt
Statistics
Flights per Day:
0 flights
Distance: 175km (109mi)
Flights delayed:
0% (0 flights per day delayed)
Delay Average: 11 minutes
Current Weather
 20 C (Humidity: 88%)
  0kt (0km/h / 0mph) from 0°
  Few clouds at 4,600 feet (1,402 meter)
  16km (10 mi.)
 METAR KNBC 220956Z AUTO 00000KT 10SM FEW046 20/18 A3020 RMK AO2 SLP227 T02000183

Current Delays

Departures
N/A
Arrivals
N/A

Destinations

Top Destinations
Airport Flights
per week
Seats
per week
  Columbia (CAE) 0 - 0 0
  Atlanta (PDK) 0 - 0 0
  Hilton Head Island (HHH) 0 - 0 0
  Jackson (HKS) 0 - 0 0

Airlines & Planes

Top Airlines
Airline Flights
per Day
Seats
per Day
Gama Aviation 0 -
  Centennial Airlines 0 -
Top Plane Types
Model Flights Seats
Cessna C208 0.2/day - 0
Beech B300 Super King Air 350 0.1/day - 0
Pilatus PC-12 0.0/day - 0